createdAt,value
2018-03-17T00:00:25.931Z,12.90
2018-03-17T00:02:53.373Z,9.40
2018-03-17T00:05:20.851Z,9.43
2018-03-17T00:07:48.303Z,9.10
2018-03-17T00:10:15.757Z,9.77
2018-03-17T00:12:43.203Z,9.50
2018-03-17T00:15:10.668Z,9.07
2018-03-17T00:17:38.105Z,8.50
2018-03-17T00:20:05.587Z,8.53
2018-03-17T00:22:33.041Z,9.50
2018-03-17T00:25:00.472Z,9.30
2018-03-17T00:27:27.907Z,9.00
2018-03-17T00:29:56.107Z,9.80
2018-03-17T00:32:23.588Z,8.87
2018-03-17T00:34:51.044Z,9.80
2018-03-17T00:37:18.500Z,9.23
2018-03-17T00:39:46.273Z,8.93
2018-03-17T00:42:13.716Z,9.20
2018-03-17T00:44:41.161Z,9.60
2018-03-17T00:47:08.595Z,9.50
2018-03-17T00:49:36.096Z,9.40
2018-03-17T00:52:03.537Z,9.10
2018-03-17T00:54:31.008Z,9.43
2018-03-17T00:56:58.452Z,10.03
2018-03-17T00:59:25.884Z,9.83
2018-03-17T01:01:53.320Z,10.03
2018-03-17T01:04:21.519Z,9.10
2018-03-17T01:06:48.956Z,9.83
2018-03-17T01:09:17.181Z,10.10
2018-03-17T01:11:44.628Z,10.87
2018-03-17T01:14:12.072Z,9.70
2018-03-17T01:16:39.505Z,9.40
2018-03-17T01:19:06.953Z,10.30
2018-03-17T01:21:35.154Z,11.00
2018-03-17T01:24:02.636Z,10.30
2018-03-17T01:26:30.096Z,9.80
2018-03-17T01:28:57.536Z,9.80
2018-03-17T01:31:24.963Z,10.40
2018-03-17T01:33:52.404Z,10.37
2018-03-17T01:36:20.613Z,10.43
2018-03-17T01:38:48.039Z,9.90
2018-03-17T01:41:16.251Z,8.77
2018-03-17T01:43:43.683Z,9.60
2018-03-17T01:46:11.179Z,10.13
2018-03-17T01:48:38.613Z,9.37
2018-03-17T01:51:06.056Z,9.23
2018-03-17T01:53:33.963Z,8.83
2018-03-17T01:56:01.625Z,10.20
2018-03-17T01:58:29.065Z,10.63
2018-03-17T02:00:56.539Z,9.67
2018-03-17T02:03:23.995Z,10.07
2018-03-17T02:05:51.432Z,9.50
2018-03-17T02:08:18.914Z,8.90
2018-03-17T02:10:47.288Z,9.60
2018-03-17T02:13:14.743Z,9.17
2018-03-17T02:15:42.202Z,9.80
2018-03-17T02:18:09.655Z,10.27
2018-03-17T02:20:37.108Z,11.37
2018-03-17T02:23:04.542Z,9.90
2018-03-17T02:25:31.983Z,9.67
2018-03-17T02:27:59.840Z,19.83
2018-03-17T02:30:28.037Z,15.73
2018-03-17T02:32:55.524Z,13.07
2018-03-17T02:35:22.960Z,11.80
2018-03-17T02:37:50.413Z,12.90
2018-03-17T02:40:17.846Z,10.37
2018-03-17T02:42:46.073Z,10.53
2018-03-17T02:45:13.527Z,10.87
2018-03-17T02:47:40.961Z,9.57
2018-03-17T02:50:08.619Z,9.03
2018-03-17T02:52:36.155Z,9.10
2018-03-17T02:55:03.555Z,9.93
2018-03-17T02:57:31.012Z,9.93
2018-03-17T02:59:58.471Z,9.33
2018-03-17T03:02:25.911Z,9.43
2018-03-17T03:04:53.379Z,9.30
2018-03-17T03:07:20.856Z,9.53
2018-03-17T03:09:48.294Z,9.93
2018-03-17T03:12:15.741Z,10.23
2018-03-17T03:14:43.208Z,10.00
2018-03-17T03:17:10.668Z,10.33
2018-03-17T03:19:38.116Z,9.40
2018-03-17T03:22:05.558Z,10.60
2018-03-17T03:24:33.040Z,9.70
2018-03-17T03:27:00.496Z,10.60
2018-03-17T03:29:28.359Z,9.60
2018-03-17T03:31:55.799Z,10.00
2018-03-17T03:34:23.280Z,17.63
2018-03-17T03:36:50.729Z,15.97
2018-03-17T03:39:18.161Z,13.40
2018-03-17T03:41:45.623Z,13.67
2018-03-17T03:44:13.060Z,17.67
2018-03-17T03:46:40.564Z,13.57
2018-03-17T03:49:08.024Z,9.10
2018-03-17T03:51:35.462Z,9.17
2018-03-17T03:54:02.932Z,9.00
2018-03-17T03:56:30.376Z,9.07
2018-03-17T03:58:57.821Z,9.27
2018-03-17T04:01:25.782Z,11.17
2018-03-17T04:03:53.290Z,9.40
2018-03-17T04:06:20.736Z,9.97
2018-03-17T04:08:48.199Z,9.70
2018-03-17T04:11:15.740Z,9.30
2018-03-17T04:13:43.200Z,9.43
2018-03-17T04:16:10.666Z,10.60
2018-03-17T04:18:38.111Z,9.53
2018-03-17T04:21:05.552Z,9.57
2018-03-17T04:23:32.988Z,10.10
2018-03-17T04:26:00.487Z,9.77
2018-03-17T04:28:27.928Z,10.00
2018-03-17T04:30:55.369Z,10.57
2018-03-17T04:33:22.864Z,10.33
2018-03-17T04:35:50.292Z,9.80
2018-03-17T04:38:17.768Z,9.73
2018-03-17T04:40:45.224Z,11.50
2018-03-17T04:43:12.691Z,10.43
2018-03-17T04:45:40.136Z,10.73
2018-03-17T04:48:07.584Z,11.27
2018-03-17T04:50:35.031Z,10.03
2018-03-17T04:53:02.516Z,10.30
2018-03-17T04:55:29.967Z,10.57
2018-03-17T04:57:57.399Z,9.37
2018-03-17T05:00:24.839Z,10.10
2018-03-17T05:02:52.335Z,10.47
2018-03-17T05:05:19.808Z,9.60
2018-03-17T05:07:47.355Z,10.50
2018-03-17T05:10:14.820Z,10.70
2018-03-17T05:12:42.273Z,9.90
2018-03-17T05:15:09.723Z,9.93
2018-03-17T05:17:37.160Z,9.77
2018-03-17T05:20:04.635Z,9.90
2018-03-17T05:22:32.096Z,10.60
2018-03-17T05:24:59.531Z,10.57
2018-03-17T05:27:27.019Z,9.70
2018-03-17T05:29:54.584Z,9.77
2018-03-17T05:32:22.171Z,10.17
2018-03-17T05:34:50.381Z,8.70
2018-03-17T05:37:17.816Z,9.97
2018-03-17T05:39:45.282Z,9.40
2018-03-17T05:42:12.704Z,9.17
2018-03-17T05:44:40.135Z,9.57
2018-03-17T05:47:07.588Z,9.60
2018-03-17T05:49:35.044Z,9.40
2018-03-17T05:52:02.509Z,9.53
2018-03-17T05:54:30.055Z,8.87
2018-03-17T05:56:57.512Z,9.30
2018-03-17T05:59:24.972Z,10.00
2018-03-17T06:01:52.428Z,9.00
2018-03-17T06:04:19.940Z,8.73
2018-03-17T06:06:47.339Z,9.23
2018-03-17T06:09:14.776Z,9.10
2018-03-17T06:11:42.251Z,8.20
2018-03-17T06:14:09.692Z,8.93
2018-03-17T06:16:37.124Z,8.17
2018-03-17T06:19:04.560Z,8.50
2018-03-17T06:21:31.988Z,10.27
2018-03-17T06:23:59.434Z,8.70
2018-03-17T06:26:26.880Z,9.00
2018-03-17T06:28:54.313Z,8.00
2018-03-17T06:31:22.506Z,9.40
2018-03-17T06:33:49.984Z,8.10
2018-03-17T06:36:17.417Z,8.97
2018-03-17T06:38:44.866Z,9.50
2018-03-17T06:41:12.348Z,8.90
2018-03-17T06:43:39.915Z,8.10
2018-03-17T06:46:07.363Z,8.20
2018-03-17T06:48:34.824Z,8.73
2018-03-17T06:51:02.287Z,8.67
2018-03-17T06:53:29.720Z,8.80
2018-03-17T06:55:57.160Z,7.83
2018-03-17T06:58:25.367Z,7.80
2018-03-17T07:00:52.814Z,7.90
2018-03-17T07:03:20.253Z,8.60
2018-03-17T07:05:47.739Z,8.37
2018-03-17T07:08:15.348Z,8.50
2018-03-17T07:10:43.583Z,6.80
2018-03-17T07:13:11.069Z,7.97
2018-03-17T07:15:38.456Z,8.30
2018-03-17T07:18:06.052Z,7.67
2018-03-17T07:20:33.501Z,8.13
2018-03-17T07:23:00.934Z,7.40
2018-03-17T07:25:28.368Z,8.73
2018-03-17T07:27:56.568Z,7.90
2018-03-17T07:30:24.013Z,8.23
2018-03-17T07:32:51.447Z,7.93
2018-03-17T07:35:19.652Z,8.00
2018-03-17T07:37:47.138Z,8.40
2018-03-17T07:40:14.571Z,8.37
2018-03-17T07:42:42.051Z,7.33
2018-03-17T07:45:09.496Z,8.00
2018-03-17T07:47:36.961Z,7.10
2018-03-17T07:50:04.400Z,8.60
2018-03-17T07:52:31.836Z,8.33
2018-03-17T07:54:59.276Z,7.17
2018-03-17T07:57:27.507Z,7.87
2018-03-17T07:59:54.943Z,7.43
2018-03-17T08:02:22.393Z,8.00
2018-03-17T08:04:49.881Z,7.57
2018-03-17T08:07:17.336Z,7.50
2018-03-17T08:09:44.879Z,6.70
2018-03-17T08:12:12.352Z,8.23
2018-03-17T08:14:39.787Z,7.00
2018-03-17T08:17:07.276Z,6.50
2018-03-17T08:19:34.721Z,6.90
2018-03-17T08:22:02.139Z,6.40
2018-03-17T08:24:29.579Z,7.73
2018-03-17T08:26:57.796Z,6.50
2018-03-17T08:29:25.240Z,7.53
2018-03-17T08:31:52.664Z,6.63
2018-03-17T08:34:20.876Z,7.03
2018-03-17T08:36:48.299Z,7.00
2018-03-17T08:39:16.528Z,6.90
2018-03-17T08:41:43.972Z,7.87
2018-03-17T08:44:11.451Z,7.70
2018-03-17T08:46:38.898Z,6.03
2018-03-17T08:49:06.331Z,6.73
2018-03-17T08:51:33.820Z,6.90
2018-03-17T08:54:01.284Z,6.90
2018-03-17T08:56:28.725Z,7.30
2018-03-17T08:58:56.161Z,7.73
2018-03-17T09:01:23.592Z,7.27
2018-03-17T09:03:51.780Z,7.07
2018-03-17T09:06:19.215Z,6.47
2018-03-17T09:08:47.419Z,7.00
2018-03-17T09:11:14.844Z,6.17
2018-03-17T09:13:43.062Z,6.20
2018-03-17T09:16:10.487Z,6.67
2018-03-17T09:18:38.684Z,7.20
2018-03-17T09:21:06.125Z,6.60
2018-03-17T09:23:33.556Z,6.23
2018-03-17T09:26:01.756Z,6.53
2018-03-17T09:28:29.188Z,6.90
2018-03-17T09:30:57.395Z,6.23
2018-03-17T09:33:24.816Z,6.20
2018-03-17T09:35:53.042Z,7.00
2018-03-17T09:38:20.460Z,5.90
2018-03-17T09:40:48.664Z,6.87
2018-03-17T09:43:16.094Z,6.47
2018-03-17T09:45:44.299Z,6.73
2018-03-17T09:48:11.741Z,6.70
2018-03-17T09:50:39.170Z,6.13
2018-03-17T09:53:07.368Z,6.13
2018-03-17T09:55:34.811Z,6.97
2018-03-17T09:58:02.988Z,5.87
2018-03-17T10:00:30.432Z,6.10
2018-03-17T10:02:58.647Z,7.27
2018-03-17T10:05:26.083Z,7.10
2018-03-17T10:07:53.526Z,6.93
2018-03-17T10:10:21.707Z,5.70
2018-03-17T10:12:49.148Z,5.90
2018-03-17T10:15:17.349Z,6.50
2018-03-17T10:17:44.791Z,6.10
2018-03-17T10:20:12.216Z,5.53
2018-03-17T10:22:39.648Z,5.83
2018-03-17T10:25:07.103Z,6.10
2018-03-17T10:27:34.543Z,5.40
2018-03-17T10:30:01.967Z,6.03
2018-03-17T10:32:30.159Z,5.90
2018-03-17T10:34:57.596Z,6.70
2018-03-17T10:37:25.800Z,7.20
2018-03-17T10:39:53.228Z,5.97
2018-03-17T10:42:21.439Z,6.07
2018-03-17T10:44:48.853Z,5.60
2018-03-17T10:47:17.185Z,7.40
2018-03-17T10:49:44.494Z,5.50
2018-03-17T10:52:12.691Z,5.67
2018-03-17T10:54:40.120Z,6.70
2018-03-17T10:57:08.335Z,5.90
2018-03-17T10:59:35.764Z,5.77
2018-03-17T11:02:05.111Z,6.17
2018-03-17T11:04:32.555Z,6.00
2018-03-17T11:06:59.996Z,5.63
2018-03-17T11:09:27.424Z,5.83
2018-03-17T11:11:55.760Z,6.17
2018-03-17T11:14:23.180Z,6.33
2018-03-17T11:16:50.731Z,6.67
2018-03-17T11:19:18.136Z,6.00
2018-03-17T11:21:45.572Z,6.30
2018-03-17T11:24:13.012Z,6.20
2018-03-17T11:26:40.452Z,6.37
2018-03-17T11:29:08.643Z,6.17
2018-03-17T11:31:36.075Z,6.67
2018-03-17T11:34:04.271Z,6.07
2018-03-17T11:36:31.869Z,6.43
2018-03-17T11:38:59.301Z,6.23
2018-03-17T11:41:26.735Z,7.30
2018-03-17T11:43:54.957Z,5.70
2018-03-17T11:46:22.389Z,6.93
2018-03-17T11:48:49.848Z,6.00
2018-03-17T11:51:17.337Z,5.87
2018-03-17T11:53:44.803Z,6.40
2018-03-17T11:56:12.219Z,5.93
2018-03-17T11:58:39.643Z,5.40
2018-03-17T12:01:07.848Z,6.50
2018-03-17T12:03:35.280Z,6.33
2018-03-17T12:06:02.716Z,5.73
2018-03-17T12:08:30.136Z,6.20
2018-03-17T12:10:57.571Z,6.37
2018-03-17T12:13:24.998Z,5.80
2018-03-17T12:15:53.217Z,6.40
2018-03-17T12:18:20.680Z,6.30
2018-03-17T12:20:48.149Z,6.13
2018-03-17T12:23:15.597Z,5.37
2018-03-17T12:25:43.066Z,5.80
2018-03-17T12:28:10.502Z,6.40
2018-03-17T12:30:37.981Z,6.33
2018-03-17T12:33:05.417Z,5.90
2018-03-17T12:35:32.840Z,5.60
2018-03-17T12:38:00.271Z,5.67
2018-03-17T12:40:28.482Z,6.77
2018-03-17T12:42:55.972Z,6.30
2018-03-17T12:45:24.249Z,5.83
2018-03-17T12:47:51.701Z,6.27
2018-03-17T12:50:19.173Z,5.93
2018-03-17T12:52:46.724Z,5.83
2018-03-17T12:55:14.144Z,5.90
2018-03-17T12:57:41.579Z,5.93
2018-03-17T13:00:10.111Z,5.83
2018-03-17T13:02:37.544Z,6.93
2018-03-17T13:05:05.007Z,5.57
2018-03-17T13:07:32.436Z,5.87
2018-03-17T13:09:59.940Z,8.13
2018-03-17T13:12:27.401Z,6.17
2018-03-17T13:14:54.832Z,5.80
2018-03-17T13:17:22.284Z,5.53
2018-03-17T13:19:49.772Z,6.10
2018-03-17T13:22:17.242Z,6.80
2018-03-17T13:24:44.802Z,6.13
2018-03-17T13:27:24.124Z,6.23
2018-03-17T13:29:51.568Z,5.17
2018-03-17T13:32:31.011Z,5.60
2018-03-17T13:34:58.452Z,6.33
2018-03-17T13:37:34.852Z,12.33
2018-03-17T13:40:02.288Z,29.83
2018-03-17T13:42:29.732Z,12.80
2018-03-17T13:44:57.179Z,12.67
2018-03-17T13:47:24.632Z,12.33
2018-03-17T13:49:52.051Z,8.37
2018-03-17T13:52:20.272Z,11.20
2018-03-17T13:54:47.702Z,10.77
2018-03-17T13:57:15.932Z,9.37
2018-03-17T13:59:43.491Z,10.27
2018-03-17T14:02:10.928Z,6.90
2018-03-17T14:04:38.388Z,12.23
2018-03-17T14:07:05.864Z,12.00
2018-03-17T14:09:33.316Z,8.80
2018-03-17T14:12:00.756Z,8.70
2018-03-17T14:14:28.199Z,8.30
2018-03-17T14:16:55.623Z,7.40
2018-03-17T14:19:23.886Z,9.80
2018-03-17T14:21:51.314Z,6.07
2018-03-17T14:24:18.777Z,7.70
2018-03-17T14:26:46.326Z,8.27
2018-03-17T14:29:13.791Z,6.17
2018-03-17T14:31:41.895Z,8.30
2018-03-17T14:34:10.137Z,7.00
2018-03-17T14:36:37.580Z,7.30
2018-03-17T14:39:05.053Z,7.20
2018-03-17T14:41:32.504Z,7.80
2018-03-17T14:44:00.063Z,6.53
2018-03-17T14:46:27.495Z,7.00
2018-03-17T14:48:55.097Z,6.47
2018-03-17T14:51:22.554Z,8.60
2018-03-17T14:53:49.993Z,6.77
2018-03-17T14:56:17.470Z,6.70
2018-03-17T14:58:44.896Z,6.87
2018-03-17T15:01:12.353Z,6.90
2018-03-17T15:03:39.776Z,6.33
2018-03-17T15:06:07.214Z,5.90
2018-03-17T15:08:34.644Z,5.90
2018-03-17T15:11:02.184Z,6.93
2018-03-17T15:13:29.618Z,6.30
2018-03-17T15:15:57.056Z,7.03
2018-03-17T15:18:24.516Z,6.33
2018-03-17T15:20:52.467Z,5.87
2018-03-17T15:23:20.670Z,7.30
2018-03-17T15:25:48.104Z,6.57
2018-03-17T15:28:16.332Z,6.87
2018-03-17T15:30:43.767Z,6.47
2018-03-17T15:33:11.245Z,6.03
2018-03-17T15:35:38.678Z,6.47
2018-03-17T15:38:06.164Z,6.70
2018-03-17T15:40:33.604Z,6.40
2018-03-17T15:43:01.042Z,7.20
2018-03-17T15:45:28.737Z,6.30
2018-03-17T15:47:56.168Z,6.40
2018-03-17T15:50:23.624Z,6.30
2018-03-17T15:52:51.057Z,6.50
2018-03-17T15:55:19.265Z,6.77
2018-03-17T15:57:46.696Z,6.20
2018-03-17T16:00:14.193Z,6.93
2018-03-17T16:02:41.625Z,6.37
2018-03-17T16:05:09.666Z,5.70
2018-03-17T16:07:37.878Z,6.73
2018-03-17T16:10:05.350Z,7.17
2018-03-17T16:12:32.793Z,6.30
2018-03-17T16:15:00.272Z,5.97
2018-03-17T16:17:27.706Z,6.30
2018-03-17T16:19:55.142Z,6.40
2018-03-17T16:22:22.636Z,6.70
2018-03-17T16:24:50.088Z,7.27
2018-03-17T16:27:17.530Z,8.20
2018-03-17T16:29:45.016Z,9.47
2018-03-17T16:32:12.468Z,7.30
2018-03-17T16:34:39.932Z,7.57
2018-03-17T16:37:07.384Z,9.17
2018-03-17T16:39:34.837Z,7.00
2018-03-17T16:42:02.301Z,7.20
2018-03-17T16:44:29.760Z,7.10
2018-03-17T16:46:57.200Z,10.10
2018-03-17T16:49:24.672Z,7.83
2018-03-17T16:51:52.272Z,6.43
2018-03-17T16:54:20.288Z,7.70
2018-03-17T16:56:47.745Z,9.50
2018-03-17T16:59:15.208Z,7.90
2018-03-17T17:01:42.667Z,8.70
2018-03-17T17:04:10.115Z,7.80
2018-03-17T17:06:37.569Z,8.53
2018-03-17T17:09:05.031Z,7.83
2018-03-17T17:11:32.484Z,8.00
2018-03-17T17:13:59.952Z,13.80
2018-03-17T17:16:27.389Z,9.97
2018-03-17T17:18:55.592Z,7.97
2018-03-17T17:21:23.168Z,8.70
2018-03-17T17:23:50.624Z,8.53
2018-03-17T17:26:18.069Z,8.90
2018-03-17T17:28:45.630Z,8.83
2018-03-17T17:31:13.061Z,10.43
2018-03-17T17:33:40.527Z,9.17
2018-03-17T17:36:08.012Z,8.13
2018-03-17T17:38:35.548Z,9.07
2018-03-17T17:41:02.999Z,6.70
2018-03-17T17:43:30.477Z,7.63
2018-03-17T17:45:57.963Z,8.30
2018-03-17T17:48:25.375Z,7.60
2018-03-17T17:50:52.815Z,6.97
2018-03-17T17:53:20.240Z,7.90
2018-03-17T17:55:47.759Z,7.17
2018-03-17T17:58:16.030Z,6.53
2018-03-17T18:00:43.491Z,6.87
2018-03-17T18:03:10.936Z,6.63
2018-03-17T18:05:38.361Z,6.47
2018-03-17T18:08:06.677Z,7.43
2018-03-17T18:10:34.120Z,7.77
2018-03-17T18:13:01.585Z,7.20
2018-03-17T18:15:29.349Z,9.70
2018-03-17T18:17:56.905Z,7.33
2018-03-17T18:20:24.347Z,6.50
2018-03-17T18:22:51.818Z,6.30
2018-03-17T18:25:19.271Z,7.60
2018-03-17T18:27:46.717Z,7.10
2018-03-17T18:30:14.185Z,6.53
2018-03-17T18:32:41.629Z,6.00
2018-03-17T18:35:09.052Z,6.30
2018-03-17T18:37:36.507Z,6.50
2018-03-17T18:40:04.704Z,6.63
2018-03-17T18:42:32.159Z,6.90
2018-03-17T18:45:00.413Z,6.00
2018-03-17T18:47:28.608Z,5.93
2018-03-17T18:49:56.054Z,6.40
2018-03-17T18:52:23.586Z,6.77
2018-03-17T18:54:51.022Z,5.77
2018-03-17T18:57:18.461Z,6.03
2018-03-17T18:59:45.903Z,6.40
2018-03-17T19:02:13.336Z,6.53
2018-03-17T19:04:41.526Z,6.43
2018-03-17T19:07:08.976Z,7.23
2018-03-17T19:09:36.411Z,6.50
2018-03-17T19:12:04.652Z,6.20
2018-03-17T19:14:32.099Z,6.90
2018-03-17T19:16:59.557Z,6.80
2018-03-17T19:19:27.000Z,6.30
2018-03-17T19:21:54.476Z,6.23
2018-03-17T19:24:21.921Z,6.73
2018-03-17T19:26:49.391Z,7.17
2018-03-17T19:29:16.846Z,6.90
2018-03-17T19:31:44.296Z,7.07
2018-03-17T19:34:11.783Z,6.53
2018-03-17T19:36:39.226Z,6.80
2018-03-17T19:39:06.660Z,9.20
2018-03-17T19:41:34.101Z,17.80
2018-03-17T19:44:01.581Z,12.70
2018-03-17T19:46:29.027Z,9.20
2018-03-17T19:48:56.466Z,8.73
2018-03-17T19:51:23.946Z,8.20
2018-03-17T19:53:51.393Z,7.00
2018-03-17T19:56:18.866Z,8.27
2018-03-17T19:58:46.327Z,7.13
2018-03-17T20:01:13.935Z,7.80
2018-03-17T20:03:42.153Z,9.30
2018-03-17T20:06:09.599Z,8.70
2018-03-17T20:08:37.089Z,7.23
2018-03-17T20:11:06.135Z,8.47
2018-03-17T20:13:33.586Z,8.90
2018-03-17T20:16:01.036Z,9.67
2018-03-17T20:18:28.464Z,7.77
2018-03-17T20:20:55.989Z,8.23
2018-03-17T20:23:23.448Z,6.63
2018-03-17T20:25:50.928Z,6.67
2018-03-17T20:28:18.385Z,12.90
2018-03-17T20:30:45.830Z,16.17
2018-03-17T20:33:13.281Z,8.33
2018-03-17T20:35:40.708Z,8.10
2018-03-17T20:38:08.199Z,8.37
2018-03-17T20:40:35.644Z,7.23
2018-03-17T20:43:03.102Z,6.83
2018-03-17T20:45:30.547Z,8.10
2018-03-17T20:47:58.036Z,7.27
2018-03-17T20:50:25.576Z,12.83
2018-03-17T20:52:53.045Z,12.03
2018-03-17T20:55:20.492Z,13.20
2018-03-17T20:57:48.048Z,10.00
2018-03-17T21:00:15.521Z,9.53
2018-03-17T21:02:43.078Z,8.67
2018-03-17T21:05:10.516Z,9.60
2018-03-17T21:07:37.965Z,9.87
2018-03-17T21:10:05.425Z,8.40
2018-03-17T21:12:32.878Z,8.23
2018-03-17T21:15:00.312Z,7.77
2018-03-17T21:17:27.770Z,8.40
2018-03-17T21:19:55.972Z,8.00
2018-03-17T21:22:23.413Z,8.53
2018-03-17T21:24:50.884Z,7.70
2018-03-17T21:27:18.316Z,7.83
2018-03-17T21:29:45.856Z,8.23
2018-03-17T21:32:14.099Z,8.30
2018-03-17T21:34:41.664Z,9.00
2018-03-17T21:37:09.123Z,7.80
2018-03-17T21:39:36.572Z,8.10
2018-03-17T21:42:04.004Z,8.10
2018-03-17T21:44:31.466Z,7.13
2018-03-17T21:46:58.893Z,8.67
2018-03-17T21:49:26.332Z,8.53
2018-03-17T21:51:54.538Z,8.43
2018-03-17T21:54:21.972Z,7.87
2018-03-17T21:56:50.193Z,8.47
2018-03-17T21:59:17.637Z,9.07
2018-03-17T22:01:45.085Z,7.83
2018-03-17T22:04:12.524Z,8.63
2018-03-17T22:06:39.956Z,8.77
2018-03-17T22:09:08.158Z,8.80
2018-03-17T22:11:35.648Z,8.40
2018-03-17T22:14:03.082Z,8.73
2018-03-17T22:16:30.508Z,8.97
2018-03-17T22:18:58.713Z,8.87
2018-03-17T22:21:26.143Z,8.73
2018-03-17T22:23:54.347Z,8.70
2018-03-17T22:26:21.784Z,9.80
2018-03-17T22:28:49.292Z,15.50
2018-03-17T22:31:16.732Z,15.40
2018-03-17T22:33:44.192Z,12.20
2018-03-17T22:36:11.634Z,13.80
2018-03-17T22:38:39.084Z,10.10
2018-03-17T22:41:06.511Z,8.63
2018-03-17T22:43:34.717Z,8.80
2018-03-17T22:46:02.419Z,9.27
2018-03-17T22:48:30.003Z,9.03
2018-03-17T22:50:58.199Z,9.23
2018-03-17T22:53:25.642Z,8.37
2018-03-17T22:55:53.843Z,8.00
2018-03-17T22:58:21.328Z,8.37
2018-03-17T23:00:48.763Z,7.60
2018-03-17T23:03:16.191Z,9.90
2018-03-17T23:05:43.631Z,8.50
2018-03-17T23:08:11.820Z,9.47
2018-03-17T23:10:39.256Z,11.03
2018-03-17T23:13:07.456Z,8.03
2018-03-17T23:15:34.891Z,10.23
2018-03-17T23:18:03.100Z,11.03
2018-03-17T23:20:30.567Z,9.67
2018-03-17T23:22:58.006Z,8.10
2018-03-17T23:25:25.435Z,8.93
2018-03-17T23:27:53.644Z,8.87
2018-03-17T23:30:21.077Z,8.80
2018-03-17T23:32:49.267Z,9.00
2018-03-17T23:35:16.708Z,8.93
2018-03-17T23:37:44.928Z,9.10
2018-03-17T23:40:12.359Z,9.20
2018-03-17T23:42:39.791Z,9.23
2018-03-17T23:45:07.983Z,11.47
2018-03-17T23:47:36.181Z,9.67
2018-03-17T23:50:03.629Z,9.80
2018-03-17T23:52:31.056Z,9.50
2018-03-17T23:54:59.256Z,8.73
2018-03-17T23:57:26.716Z,9.10
2018-03-17T23:59:54.169Z,9.30
